LFSB/MLH METAR and TAF weather

Enter ICAO airport designator
Station Type Date Time Source
LFSB METAR 2021/06/24 06:30 UTC NOAA

LFSB 240630Z 16004KT 9999 FEW006 BKN160 16/14 Q1018 NOSIG


Station Type Date Time Source
LFSB Decoded METAR 2021/06/24 06:30 UTC NOAA

Bale-Mulhouse, France (LFSB) 47-36N 007-31E 271M
Jun 24, 2021 - 02:30 AM EDT / 2021.06.24 0630 UTC
Wind: from the SSE (160 degrees) at 5 MPH (4 KT):0
Visibility: greater than 7 mile(s):0
Sky conditions: mostly cloudy
Temperature: 60 F (16 C)
Dew Point: 57 F (14 C)
Relative Humidity: 87%
Pressure (altimeter): 30.06 in. Hg (1018 hPa)
ob: LFSB 240630Z 16004KT 9999 FEW006 BKN160 16/14 Q1018 NOSIG
cycle: 6

Station Type Date Time Source
LFSB TAF 2021/06/24 06:21 UTC NOAA

TAF LFSB 240500Z 2406/2506 VRB04KT 9999 FEW025 SCT100 PROB30
TEMPO 2408/2410 -SHRA FEW025CB
BECMG 2411/2413 28008KT
TEMPO 2410/2424 27012G22KT 4000 SHRA FEW030CB BKN035 PROB40
TEMPO 2411/2419 30015G25KT 2000 TSRA SCT025CB BKN030 PROB30
TEMPO 2419/2421 TSRA
TEMPO 2500/2506 -SHRA FEW010 BKN030

Example: see airport list